createdAt,value
2019-05-26T00:00:43.796Z,1011.57
2019-05-26T00:01:43.784Z,1011.55
2019-05-26T00:02:43.773Z,1011.54
2019-05-26T00:03:43.794Z,1011.54
2019-05-26T00:04:43.758Z,1011.57
2019-05-26T00:05:43.741Z,1011.53
2019-05-26T00:06:43.730Z,1011.52
2019-05-26T00:07:43.717Z,1011.47
2019-05-26T00:08:43.725Z,1011.46
2019-05-26T00:09:43.692Z,1011.45
2019-05-26T00:10:43.716Z,1011.43
2019-05-26T00:11:43.674Z,1011.42
2019-05-26T00:12:43.663Z,1011.41
2019-05-26T00:13:43.836Z,1011.42
2019-05-26T00:14:43.649Z,1011.42
2019-05-26T00:15:43.637Z,1011.43
2019-05-26T00:16:43.618Z,1011.39
2019-05-26T00:17:43.607Z,1011.40
2019-05-26T00:18:43.623Z,1011.38
2019-05-26T00:19:43.587Z,1011.42
2019-05-26T00:20:43.573Z,1011.38
2019-05-26T00:21:43.565Z,1011.35
2019-05-26T00:22:43.587Z,1011.39
2019-05-26T00:23:43.559Z,1011.33
2019-05-26T00:24:43.528Z,1011.34
2019-05-26T00:25:43.520Z,1011.35
2019-05-26T00:26:43.504Z,1011.34
2019-05-26T00:27:43.500Z,1011.31
2019-05-26T00:28:43.515Z,1011.34
2019-05-26T00:29:43.473Z,1011.31
2019-05-26T00:30:43.459Z,1011.30
2019-05-26T00:31:43.454Z,1011.29
2019-05-26T00:32:43.443Z,1011.30
2019-05-26T00:33:43.446Z,1011.28
2019-05-26T00:34:43.438Z,1011.30
2019-05-26T00:35:43.408Z,1011.26
2019-05-26T00:36:43.399Z,1011.31
2019-05-26T00:37:49.651Z,1011.29
2019-05-26T00:38:44.397Z,1011.29
2019-05-26T00:39:43.369Z,1011.30
2019-05-26T00:40:43.346Z,1011.26
2019-05-26T00:41:43.340Z,1011.27
2019-05-26T00:42:43.348Z,1011.21
2019-05-26T00:43:43.320Z,1011.21
2019-05-26T00:44:43.326Z,1011.20
2019-05-26T00:45:43.296Z,1011.21
2019-05-26T00:46:43.286Z,1011.14
2019-05-26T00:47:43.270Z,1011.18
2019-05-26T00:48:43.449Z,1011.18
2019-05-26T00:49:43.278Z,1011.15
2019-05-26T00:50:43.241Z,1011.16
2019-05-26T00:51:43.224Z,1011.15
2019-05-26T00:52:43.230Z,1011.19
2019-05-26T00:53:43.215Z,1011.16
2019-05-26T00:54:43.197Z,1011.13
2019-05-26T00:55:43.203Z,1011.15
2019-05-26T00:56:43.173Z,1011.17
2019-05-26T00:57:43.164Z,1011.17
2019-05-26T00:58:43.147Z,1011.16
2019-05-26T00:59:43.138Z,1011.12
2019-05-26T01:00:43.156Z,1011.13
2019-05-26T01:01:43.119Z,1011.12
2019-05-26T01:02:43.112Z,1011.10
2019-05-26T01:03:43.094Z,1011.11
2019-05-26T01:04:43.080Z,1011.08
2019-05-26T01:05:43.097Z,1011.06
2019-05-26T01:06:43.069Z,1011.07
2019-05-26T01:07:43.152Z,1011.05
2019-05-26T01:08:43.047Z,1011.07
2019-05-26T01:09:43.034Z,1011.09
2019-05-26T01:10:43.015Z,1011.04
2019-05-26T01:11:43.032Z,1011.06
2019-05-26T01:12:42.994Z,1011.08
2019-05-26T01:13:42.989Z,1011.06
2019-05-26T01:14:42.972Z,1011.08
2019-05-26T01:15:42.962Z,1011.09
2019-05-26T01:16:43.014Z,1011.07
2019-05-26T01:17:42.975Z,1011.09
2019-05-26T01:18:42.928Z,1011.09
2019-05-26T01:19:42.997Z,1011.12
2019-05-26T01:20:42.907Z,1011.13
2019-05-26T01:21:42.896Z,1011.09
2019-05-26T01:22:43.006Z,1011.09
2019-05-26T01:23:42.881Z,1011.11
2019-05-26T01:24:42.863Z,1011.13
2019-05-26T01:25:42.859Z,1011.10
2019-05-26T01:26:42.836Z,1011.10
2019-05-26T01:27:42.846Z,1011.08
2019-05-26T01:28:42.821Z,1011.10
2019-05-26T01:29:42.874Z,1011.15
2019-05-26T01:30:42.794Z,1011.11
2019-05-26T01:31:42.801Z,1011.04
2019-05-26T01:32:42.788Z,1011.14
2019-05-26T01:33:42.760Z,1011.13
2019-05-26T01:34:42.899Z,1011.11
2019-05-26T01:35:42.734Z,1011.09
2019-05-26T01:36:42.731Z,1011.10
2019-05-26T01:37:42.745Z,1011.16
2019-05-26T01:38:42.850Z,1011.10
2019-05-26T01:39:42.690Z,1011.14
2019-05-26T01:40:42.709Z,1011.08
2019-05-26T01:41:42.670Z,1011.09
2019-05-26T01:42:42.664Z,1011.08
2019-05-26T01:43:42.678Z,1011.12
2019-05-26T01:44:42.637Z,1011.10
2019-05-26T01:45:42.629Z,1011.11
2019-05-26T01:46:42.628Z,1011.12
2019-05-26T01:47:42.608Z,1011.05
2019-05-26T01:48:42.621Z,1011.09
2019-05-26T01:49:42.585Z,1011.12
2019-05-26T01:50:42.571Z,1011.08
2019-05-26T01:51:42.559Z,1011.08
2019-05-26T01:52:42.548Z,1011.10
2019-05-26T01:53:42.554Z,1011.09
2019-05-26T01:54:42.520Z,1011.08
2019-05-26T01:55:42.513Z,1011.08
2019-05-26T01:56:42.503Z,1011.08
2019-05-26T01:57:42.502Z,1011.04
2019-05-26T01:58:42.502Z,1011.04
2019-05-26T01:59:42.475Z,1011.09
2019-05-26T02:00:42.481Z,1011.07
2019-05-26T02:01:42.450Z,1011.09
2019-05-26T02:02:42.440Z,1011.08
2019-05-26T02:03:42.445Z,1011.08
2019-05-26T02:04:42.415Z,1011.11
2019-05-26T02:05:42.494Z,1011.09
2019-05-26T02:06:42.390Z,1011.13
2019-05-26T02:07:42.403Z,1011.17
2019-05-26T02:08:42.390Z,1011.11
2019-05-26T02:09:42.361Z,1011.08
2019-05-26T02:10:42.365Z,1011.10
2019-05-26T02:11:42.349Z,1011.10
2019-05-26T02:12:42.336Z,1011.02
2019-05-26T02:13:42.333Z,1011.08
2019-05-26T02:14:42.303Z,1011.04
2019-05-26T02:15:42.290Z,1011.04
2019-05-26T02:16:42.284Z,1011.03
2019-05-26T02:17:42.297Z,1011.04
2019-05-26T02:18:42.275Z,1011.04
2019-05-26T02:19:42.252Z,1011.01
2019-05-26T02:20:42.238Z,1011.00
2019-05-26T02:21:42.227Z,1011.05
2019-05-26T02:22:42.225Z,1011.07
2019-05-26T02:23:42.234Z,1011.05
2019-05-26T02:24:42.190Z,1011.01
2019-05-26T02:25:42.179Z,1010.99
2019-05-26T02:26:42.171Z,1011.00
2019-05-26T02:27:42.161Z,1011.01
2019-05-26T02:28:42.168Z,1010.96
2019-05-26T02:29:42.137Z,1011.02
2019-05-26T02:30:42.127Z,1011.00
2019-05-26T02:31:42.149Z,1010.99
2019-05-26T02:32:42.128Z,1010.98
2019-05-26T02:33:42.095Z,1010.98
2019-05-26T02:34:42.109Z,1010.98
2019-05-26T02:35:42.068Z,1010.98
2019-05-26T02:36:42.097Z,1010.95
2019-05-26T02:37:42.059Z,1010.94
2019-05-26T02:38:59.825Z,1010.97
2019-05-26T02:39:43.040Z,1010.99
2019-05-26T02:40:42.028Z,1010.97
2019-05-26T02:41:42.017Z,1010.96
2019-05-26T02:42:42.002Z,1011.04
2019-05-26T02:43:41.982Z,1011.06
2019-05-26T02:44:41.989Z,1011.04
2019-05-26T02:45:41.963Z,1011.07
2019-05-26T02:46:42.083Z,1011.08
2019-05-26T02:47:41.950Z,1011.08
2019-05-26T02:48:41.928Z,1011.07
2019-05-26T02:49:41.924Z,1011.02
2019-05-26T02:50:41.927Z,1011.06
2019-05-26T02:51:41.893Z,1011.05
2019-05-26T02:52:41.894Z,1011.01
2019-05-26T02:53:41.869Z,1011.02
2019-05-26T02:54:41.869Z,1011.08
2019-05-26T02:55:41.864Z,1011.10
2019-05-26T02:56:41.837Z,1011.09
2019-05-26T02:57:41.832Z,1011.09
2019-05-26T02:58:41.810Z,1011.08
2019-05-26T02:59:41.813Z,1011.09
2019-05-26T03:00:41.810Z,1011.09
2019-05-26T03:02:00.905Z,1011.14
2019-05-26T03:02:42.779Z,1011.06
2019-05-26T03:03:41.767Z,1011.10
2019-05-26T03:04:41.745Z,1011.09
2019-05-26T03:05:41.731Z,1011.11
2019-05-26T03:06:41.741Z,1011.05
2019-05-26T03:07:41.715Z,1011.14
2019-05-26T03:08:41.703Z,1011.12
2019-05-26T03:09:41.689Z,1011.10
2019-05-26T03:10:41.808Z,1011.03
2019-05-26T03:11:41.682Z,1011.09
2019-05-26T03:12:41.666Z,1011.10
2019-05-26T03:13:41.643Z,1011.08
2019-05-26T03:14:41.641Z,1011.12
2019-05-26T03:15:41.619Z,1011.15
2019-05-26T03:16:41.653Z,1011.14
2019-05-26T03:17:41.603Z,1011.14
2019-05-26T03:18:41.595Z,1011.17
2019-05-26T03:19:41.584Z,1011.17
2019-05-26T03:20:41.577Z,1011.09
2019-05-26T03:21:41.587Z,1011.13
2019-05-26T03:22:41.556Z,1011.08
2019-05-26T03:23:41.536Z,1011.09
2019-05-26T03:24:41.519Z,1011.07
2019-05-26T03:25:41.520Z,1011.02
2019-05-26T03:26:41.533Z,1011.04
2019-05-26T03:27:41.542Z,1011.08
2019-05-26T03:28:41.494Z,1011.09
2019-05-26T03:29:41.467Z,1011.11
2019-05-26T03:30:41.465Z,1011.09
2019-05-26T03:31:41.465Z,1011.10
2019-05-26T03:32:41.437Z,1011.11
2019-05-26T03:33:41.420Z,1011.08
2019-05-26T03:34:41.411Z,1011.07
2019-05-26T03:35:41.404Z,1011.07
2019-05-26T03:36:41.418Z,1011.10
2019-05-26T03:37:41.405Z,1011.06
2019-05-26T03:38:41.391Z,1011.07
2019-05-26T03:39:45.020Z,1011.02
2019-05-26T03:40:41.347Z,1011.07
2019-05-26T03:41:41.353Z,1011.07
2019-05-26T03:42:41.325Z,1011.03
2019-05-26T03:43:41.320Z,1011.08
2019-05-26T03:44:41.301Z,1011.15
2019-05-26T03:45:41.293Z,1011.04
2019-05-26T03:46:41.302Z,1011.06
2019-05-26T03:47:41.265Z,1011.05
2019-05-26T03:48:41.254Z,1011.01
2019-05-26T03:49:41.248Z,1011.09
2019-05-26T03:50:41.232Z,1011.04
2019-05-26T03:51:41.244Z,1011.05
2019-05-26T03:52:41.208Z,1011.06
2019-05-26T03:53:41.199Z,1011.05
2019-05-26T03:54:41.191Z,1011.06
2019-05-26T03:55:41.176Z,1011.06
2019-05-26T03:56:41.197Z,1011.10
2019-05-26T03:57:41.157Z,1011.11
2019-05-26T03:58:41.149Z,1011.14
2019-05-26T03:59:41.134Z,1011.13
2019-05-26T04:00:41.121Z,1011.13
2019-05-26T04:01:41.136Z,1011.12
2019-05-26T04:02:41.108Z,1011.14
2019-05-26T04:03:41.121Z,1011.14
2019-05-26T04:04:41.075Z,1011.10
2019-05-26T04:05:41.069Z,1011.08
2019-05-26T04:06:41.068Z,1011.05
2019-05-26T04:07:41.039Z,1011.08
2019-05-26T04:08:41.059Z,1011.07
2019-05-26T04:09:41.021Z,1011.06
2019-05-26T04:10:41.017Z,1011.08
2019-05-26T04:11:40.999Z,1011.08
2019-05-26T04:12:41.016Z,1011.07
2019-05-26T04:13:40.987Z,1011.09
2019-05-26T04:14:40.962Z,1010.99
2019-05-26T04:15:40.952Z,1010.99
2019-05-26T04:16:40.951Z,1011.02
2019-05-26T04:17:40.953Z,1010.99
2019-05-26T04:18:40.919Z,1010.99
2019-05-26T04:19:40.915Z,1010.98
2019-05-26T04:20:45.577Z,1010.98
2019-05-26T04:21:41.890Z,1011.02
2019-05-26T04:22:40.903Z,1010.94
2019-05-26T04:23:40.866Z,1010.99
2019-05-26T04:24:40.860Z,1010.96
2019-05-26T04:25:40.843Z,1010.99
2019-05-26T04:26:40.845Z,1010.94
2019-05-26T04:27:40.840Z,1010.97
2019-05-26T04:28:40.817Z,1010.96
2019-05-26T04:29:40.802Z,1010.98
2019-05-26T04:30:40.785Z,1010.96
2019-05-26T04:31:40.775Z,1010.98
2019-05-26T04:32:40.820Z,1010.94
2019-05-26T04:33:40.755Z,1010.96
2019-05-26T04:34:40.753Z,1010.93
2019-05-26T04:35:40.727Z,1010.92
2019-05-26T04:36:40.722Z,1010.92
2019-05-26T04:37:40.726Z,1010.88
2019-05-26T04:38:40.695Z,1010.86
2019-05-26T04:39:40.681Z,1010.87
2019-05-26T04:40:40.675Z,1010.82
2019-05-26T04:41:40.664Z,1010.84
2019-05-26T04:42:40.671Z,1010.80
2019-05-26T04:43:40.648Z,1010.86
2019-05-26T04:44:40.643Z,1010.81
2019-05-26T04:45:40.621Z,1010.84
2019-05-26T04:46:40.609Z,1010.84
2019-05-26T04:47:40.621Z,1010.86
2019-05-26T04:48:40.590Z,1010.81
2019-05-26T04:49:40.572Z,1010.84
2019-05-26T04:50:40.565Z,1010.81
2019-05-26T04:51:40.557Z,1010.78
2019-05-26T04:52:40.567Z,1010.81
2019-05-26T04:53:40.534Z,1010.83
2019-05-26T04:54:40.522Z,1010.85
2019-05-26T04:55:40.521Z,1010.83
2019-05-26T04:56:40.497Z,1010.84
2019-05-26T04:57:40.509Z,1010.84
2019-05-26T04:58:40.504Z,1010.85
2019-05-26T04:59:40.461Z,1010.85
2019-05-26T05:00:40.459Z,1010.85
2019-05-26T05:01:40.437Z,1010.86
2019-05-26T05:02:40.434Z,1010.83
2019-05-26T05:03:40.436Z,1010.86
2019-05-26T05:04:40.410Z,1010.85
2019-05-26T05:05:40.395Z,1010.82
2019-05-26T05:06:40.391Z,1010.85
2019-05-26T05:07:40.473Z,1010.87
2019-05-26T05:08:40.395Z,1010.82
2019-05-26T05:09:40.361Z,1010.86
2019-05-26T05:10:42.696Z,1010.82
2019-05-26T05:11:40.334Z,1010.79
2019-05-26T05:12:40.325Z,1010.84
2019-05-26T05:13:40.327Z,1010.78
2019-05-26T05:14:40.297Z,1010.79
2019-05-26T05:15:40.294Z,1010.80
2019-05-26T05:16:40.275Z,1010.77
2019-05-26T05:17:40.261Z,1010.79
2019-05-26T05:18:40.289Z,1010.72
2019-05-26T05:19:40.245Z,1010.76
2019-05-26T05:20:40.228Z,1010.68
2019-05-26T05:21:40.224Z,1010.68
2019-05-26T05:22:40.211Z,1010.75
2019-05-26T05:23:40.210Z,1010.69
2019-05-26T05:24:40.188Z,1010.69
2019-05-26T05:25:40.185Z,1010.67
2019-05-26T05:26:40.164Z,1010.69
2019-05-26T05:27:40.157Z,1010.69
2019-05-26T05:28:40.158Z,1010.69
2019-05-26T05:29:40.127Z,1010.66
2019-05-26T05:30:40.120Z,1010.74
2019-05-26T05:31:40.104Z,1010.70
2019-05-26T05:32:40.116Z,1010.71
2019-05-26T05:33:40.110Z,1010.68
2019-05-26T05:34:40.070Z,1010.71
2019-05-26T05:35:40.062Z,1010.66
2019-05-26T05:36:40.051Z,1010.68
2019-05-26T05:37:40.044Z,1010.63
2019-05-26T05:38:40.052Z,1010.64
2019-05-26T05:39:40.027Z,1010.62
2019-05-26T05:40:40.007Z,1010.68
2019-05-26T05:41:39.997Z,1010.63
2019-05-26T05:42:39.987Z,1010.65
2019-05-26T05:43:39.998Z,1010.64
2019-05-26T05:44:39.960Z,1010.66
2019-05-26T05:45:39.976Z,1010.63
2019-05-26T05:46:39.938Z,1010.62
2019-05-26T05:47:39.930Z,1010.65
2019-05-26T05:48:39.942Z,1010.61
2019-05-26T05:49:39.918Z,1010.60
2019-05-26T05:50:39.899Z,1010.53
2019-05-26T05:51:39.884Z,1010.55
2019-05-26T05:52:39.878Z,1010.54
2019-05-26T05:53:39.878Z,1010.56
2019-05-26T05:54:39.858Z,1010.58
2019-05-26T05:55:39.845Z,1010.56
2019-05-26T05:56:39.826Z,1010.53
2019-05-26T05:57:39.825Z,1010.53
2019-05-26T05:58:39.832Z,1010.52
2019-05-26T05:59:39.794Z,1010.54
2019-05-26T06:00:39.790Z,1010.56
2019-05-26T06:01:39.774Z,1010.55
2019-05-26T06:02:39.766Z,1010.55
2019-05-26T06:03:39.770Z,1010.54
2019-05-26T06:04:39.738Z,1010.55
2019-05-26T06:05:39.729Z,1010.52
2019-05-26T06:06:39.724Z,1010.49
2019-05-26T06:07:39.711Z,1010.47
2019-05-26T06:08:39.720Z,1010.49
2019-05-26T06:09:39.700Z,1010.46
2019-05-26T06:10:39.683Z,1010.46
2019-05-26T06:11:39.666Z,1010.48
2019-05-26T06:12:39.654Z,1010.44
2019-05-26T06:13:39.663Z,1010.41
2019-05-26T06:14:39.706Z,1010.45
2019-05-26T06:15:39.614Z,1010.37
2019-05-26T06:16:39.616Z,1010.39
2019-05-26T06:17:39.607Z,1010.38
2019-05-26T06:18:39.594Z,1010.43
2019-05-26T06:19:39.593Z,1010.36
2019-05-26T06:20:39.568Z,1010.32
2019-05-26T06:21:39.550Z,1010.39
2019-05-26T06:22:39.592Z,1010.41
2019-05-26T06:23:39.545Z,1010.35
2019-05-26T06:24:39.541Z,1010.32
2019-05-26T06:25:39.505Z,1010.34
2019-05-26T06:26:39.490Z,1010.32
2019-05-26T06:27:39.493Z,1010.36
2019-05-26T06:28:39.477Z,1010.32
2019-05-26T06:29:39.480Z,1010.31
2019-05-26T06:30:39.450Z,1010.27
2019-05-26T06:31:39.496Z,1010.28
2019-05-26T06:32:39.436Z,1010.31
2019-05-26T06:33:39.425Z,1010.32
2019-05-26T06:34:39.424Z,1010.35
2019-05-26T06:35:39.395Z,1010.36
2019-05-26T06:36:39.385Z,1010.37
2019-05-26T06:37:39.409Z,1010.38
2019-05-26T06:38:39.356Z,1010.43
2019-05-26T06:39:39.367Z,1010.40
2019-05-26T06:40:39.343Z,1010.40
2019-05-26T06:41:39.334Z,1010.37
2019-05-26T06:42:39.311Z,1010.30
2019-05-26T06:43:39.303Z,1010.33
2019-05-26T06:44:52.607Z,1010.30
2019-05-26T06:45:40.282Z,1010.29
2019-05-26T06:46:39.280Z,1010.26
2019-05-26T06:47:39.275Z,1010.27
2019-05-26T06:48:39.318Z,1010.25
2019-05-26T06:49:39.254Z,1010.24
2019-05-26T06:50:39.225Z,1010.23
2019-05-26T06:51:39.211Z,1010.24
2019-05-26T06:52:39.210Z,1010.31
2019-05-26T06:53:39.189Z,1010.23
2019-05-26T06:54:39.206Z,1010.24
2019-05-26T06:55:39.176Z,1010.24
2019-05-26T06:56:39.161Z,1010.21
2019-05-26T06:57:39.150Z,1010.16
2019-05-26T06:58:39.147Z,1010.17
2019-05-26T06:59:39.151Z,1010.24
2019-05-26T07:00:39.110Z,1010.22
2019-05-26T07:01:39.108Z,1010.24
2019-05-26T07:02:39.091Z,1010.25
2019-05-26T07:03:39.080Z,1010.23
2019-05-26T07:04:39.086Z,1010.22
2019-05-26T07:05:39.059Z,1010.20
2019-05-26T07:06:39.044Z,1010.25
2019-05-26T07:07:39.036Z,1010.22
2019-05-26T07:08:39.026Z,1010.20
2019-05-26T07:09:39.049Z,1010.19
2019-05-26T07:10:39.005Z,1010.13
2019-05-26T07:11:51.692Z,1010.17
2019-05-26T07:12:39.994Z,1010.20
2019-05-26T07:13:38.965Z,1010.18
2019-05-26T07:14:38.986Z,1010.21
2019-05-26T07:15:38.955Z,1010.15
2019-05-26T07:16:39.056Z,1010.15
2019-05-26T07:17:38.923Z,1010.11
2019-05-26T07:18:38.925Z,1010.16
2019-05-26T07:19:38.938Z,1010.08
2019-05-26T07:20:38.888Z,1010.12
2019-05-26T07:21:38.899Z,1010.11
2019-05-26T07:22:38.878Z,1010.15
2019-05-26T07:23:38.857Z,1010.09
2019-05-26T07:24:38.881Z,1010.02
2019-05-26T07:25:38.839Z,1010.02
2019-05-26T07:26:38.826Z,1010.01
2019-05-26T07:27:38.841Z,1009.99
2019-05-26T07:28:38.802Z,1010.00
2019-05-26T07:29:38.790Z,1009.97
2019-05-26T07:30:38.801Z,1009.97
2019-05-26T07:31:38.763Z,1009.94
2019-05-26T07:32:38.756Z,1009.94
2019-05-26T07:33:38.744Z,1009.93
2019-05-26T07:34:38.736Z,1009.91
2019-05-26T07:35:38.752Z,1009.90
2019-05-26T07:36:38.716Z,1009.93
2019-05-26T07:37:38.704Z,1009.92
2019-05-26T07:38:38.686Z,1009.86
2019-05-26T07:39:38.688Z,1009.91
2019-05-26T07:40:38.684Z,1009.85
2019-05-26T07:41:38.659Z,1009.83
2019-05-26T07:42:38.645Z,1009.86
2019-05-26T07:43:38.628Z,1009.82
2019-05-26T07:44:38.624Z,1009.80
2019-05-26T07:45:38.630Z,1009.79
2019-05-26T07:46:38.597Z,1009.79
2019-05-26T07:47:38.598Z,1009.79
2019-05-26T07:48:38.575Z,1009.76
2019-05-26T07:49:38.568Z,1009.83
2019-05-26T07:50:38.582Z,1009.82
2019-05-26T07:51:38.547Z,1009.86
2019-05-26T07:52:38.529Z,1009.79
2019-05-26T07:53:38.522Z,1009.83
2019-05-26T07:54:38.512Z,1009.78
2019-05-26T07:55:38.524Z,1009.82
2019-05-26T07:56:38.503Z,1009.83
2019-05-26T07:57:39.113Z,1009.84
2019-05-26T07:58:38.464Z,1009.83
2019-05-26T07:59:38.450Z,1009.83
2019-05-26T08:00:38.459Z,1009.86
2019-05-26T08:01:38.460Z,1009.88
2019-05-26T08:02:38.425Z,1009.84
2019-05-26T08:03:38.418Z,1009.78
2019-05-26T08:04:38.403Z,1009.79
2019-05-26T08:05:38.409Z,1009.78
2019-05-26T08:06:38.456Z,1009.78
2019-05-26T08:07:38.373Z,1009.77
2019-05-26T08:08:38.354Z,1009.78
2019-05-26T08:09:38.426Z,1009.77
2019-05-26T08:10:38.359Z,1009.73
2019-05-26T08:11:38.338Z,1009.74
2019-05-26T08:12:38.312Z,1009.75
2019-05-26T08:13:38.304Z,1009.85
2019-05-26T08:14:38.349Z,1009.84
2019-05-26T08:15:38.331Z,1009.81
2019-05-26T08:16:38.285Z,1009.80
2019-05-26T08:17:38.252Z,1009.79
2019-05-26T08:18:38.240Z,1009.76
2019-05-26T08:19:38.240Z,1009.78
2019-05-26T08:20:38.239Z,1009.83
2019-05-26T08:21:38.208Z,1009.75
2019-05-26T08:22:38.201Z,1009.77
2019-05-26T08:23:38.191Z,1009.77
2019-05-26T08:24:38.180Z,1009.72
2019-05-26T08:25:38.186Z,1009.74
2019-05-26T08:26:38.173Z,1009.72
2019-05-26T08:27:38.154Z,1009.69
2019-05-26T08:28:38.142Z,1009.67
2019-05-26T08:29:38.119Z,1009.63
2019-05-26T08:30:38.116Z,1009.65
2019-05-26T08:31:38.122Z,1009.59
2019-05-26T08:32:38.089Z,1009.54
2019-05-26T08:33:38.082Z,1009.50
2019-05-26T08:34:38.064Z,1009.49
2019-05-26T08:35:38.070Z,1009.55
2019-05-26T08:36:38.067Z,1009.48
2019-05-26T08:37:38.032Z,1009.47
2019-05-26T08:38:38.017Z,1009.44
2019-05-26T08:39:38.009Z,1009.43
2019-05-26T08:40:37.997Z,1009.36
2019-05-26T08:41:38.010Z,1009.39
2019-05-26T08:42:44.518Z,1009.34
2019-05-26T08:43:39.007Z,1009.37
2019-05-26T08:44:37.952Z,1009.34
2019-05-26T08:45:37.941Z,1009.34
2019-05-26T08:46:37.950Z,1009.36
2019-05-26T08:47:37.925Z,1009.34
2019-05-26T08:48:37.913Z,1009.25
2019-05-26T08:49:37.896Z,1009.24
2019-05-26T08:50:37.888Z,1009.33
2019-05-26T08:51:37.892Z,1009.27
2019-05-26T08:52:37.866Z,1009.27
2019-05-26T08:53:37.859Z,1009.27
2019-05-26T08:54:37.843Z,1009.25
2019-05-26T08:55:37.845Z,1009.29
2019-05-26T08:56:37.844Z,1009.23
2019-05-26T08:57:37.814Z,1009.21
2019-05-26T08:58:37.800Z,1009.20
2019-05-26T08:59:37.791Z,1009.11
2019-05-26T09:00:37.782Z,1009.18
2019-05-26T09:01:37.787Z,1009.15
2019-05-26T09:02:37.755Z,1009.05
2019-05-26T09:03:37.741Z,1009.09
2019-05-26T09:04:37.740Z,1009.08
2019-05-26T09:05:37.729Z,1009.08
2019-05-26T09:06:37.727Z,1009.07
2019-05-26T09:07:37.705Z,1009.10
2019-05-26T09:08:37.695Z,1009.09
2019-05-26T09:09:37.685Z,1009.09
2019-05-26T09:10:37.680Z,1009.11
2019-05-26T09:11:37.681Z,1009.09
2019-05-26T09:12:37.653Z,1009.05
2019-05-26T09:13:37.632Z,1009.07
2019-05-26T09:14:37.630Z,1009.05
2019-05-26T09:15:37.615Z,1009.05
2019-05-26T09:16:37.622Z,1009.04
2019-05-26T09:17:37.591Z,1008.99
2019-05-26T09:18:37.582Z,1008.90
2019-05-26T09:19:37.568Z,1008.92
2019-05-26T09:20:37.565Z,1009.00
2019-05-26T09:21:37.572Z,1008.89
2019-05-26T09:22:37.542Z,1008.94
2019-05-26T09:23:37.517Z,1008.95
2019-05-26T09:24:37.511Z,1008.94
2019-05-26T09:25:37.503Z,1008.88
2019-05-26T09:26:37.603Z,1008.86
2019-05-26T09:27:37.487Z,1008.88
2019-05-26T09:28:37.481Z,1008.85
2019-05-26T09:29:37.459Z,1008.88
2019-05-26T09:30:37.474Z,1008.81
2019-05-26T09:31:37.440Z,1008.83
2019-05-26T09:32:37.447Z,1008.82
2019-05-26T09:33:37.426Z,1008.81
2019-05-26T09:34:37.399Z,1008.79
2019-05-26T09:35:37.390Z,1008.77
2019-05-26T09:36:37.377Z,1008.74
2019-05-26T09:37:37.397Z,1008.69
2019-05-26T09:38:37.364Z,1008.75
2019-05-26T09:39:37.361Z,1008.77
2019-05-26T09:40:37.335Z,1008.76
2019-05-26T09:41:37.331Z,1008.74
2019-05-26T09:42:37.342Z,1008.73
2019-05-26T09:43:37.302Z,1008.74
2019-05-26T09:44:37.301Z,1008.71
2019-05-26T09:45:37.283Z,1008.69
2019-05-26T09:46:37.266Z,1008.67
2019-05-26T09:47:37.289Z,1008.73
2019-05-26T09:48:37.247Z,1008.66
2019-05-26T09:49:37.239Z,1008.70
2019-05-26T09:50:37.226Z,1008.70
2019-05-26T09:51:37.237Z,1008.65
2019-05-26T09:52:37.224Z,1008.59
2019-05-26T09:53:37.192Z,1008.61
2019-05-26T09:54:37.180Z,1008.64
2019-05-26T09:55:37.170Z,1008.68
2019-05-26T09:56:37.169Z,1008.64
2019-05-26T09:57:37.174Z,1008.64
2019-05-26T09:58:37.137Z,1008.55
2019-05-26T09:59:37.146Z,1008.48
2019-05-26T10:00:37.113Z,1008.53
2019-05-26T10:01:37.110Z,1008.55
2019-05-26T10:02:37.131Z,1008.61
2019-05-26T10:03:37.081Z,1008.58
2019-05-26T10:04:37.074Z,1008.46
2019-05-26T10:05:37.066Z,1008.53
2019-05-26T10:06:37.066Z,1008.48
2019-05-26T10:07:37.068Z,1008.53
2019-05-26T10:08:37.034Z,1008.49
2019-05-26T10:09:37.021Z,1008.51
2019-05-26T10:10:37.044Z,1008.49
2019-05-26T10:11:36.989Z,1008.38
2019-05-26T10:12:37.005Z,1008.36
2019-05-26T10:13:36.972Z,1008.49
2019-05-26T10:14:37.007Z,1008.46
2019-05-26T10:15:36.952Z,1008.40
2019-05-26T10:16:36.966Z,1008.48
2019-05-26T10:17:36.957Z,1008.50
2019-05-26T10:18:36.913Z,1008.43
2019-05-26T10:19:36.949Z,1008.30
2019-05-26T10:20:36.908Z,1008.33
2019-05-26T10:21:36.880Z,1008.45
2019-05-26T10:22:36.888Z,1008.47
2019-05-26T10:23:36.866Z,1008.46
2019-05-26T10:24:36.843Z,1008.45
2019-05-26T10:25:36.842Z,1008.36
2019-05-26T10:26:36.827Z,1008.32
2019-05-26T10:27:36.898Z,1008.44
2019-05-26T10:28:36.803Z,1008.50
2019-05-26T10:29:36.799Z,1008.43
2019-05-26T10:30:36.785Z,1008.38
2019-05-26T10:31:36.776Z,1008.27
2019-05-26T10:32:36.795Z,1008.27
2019-05-26T10:33:36.753Z,1008.30
2019-05-26T10:34:36.751Z,1008.28
2019-05-26T10:35:36.738Z,1008.35
2019-05-26T10:36:36.742Z,1008.33
2019-05-26T10:37:36.710Z,1008.17
2019-05-26T10:38:36.734Z,1008.28
2019-05-26T10:39:36.688Z,1008.40
2019-05-26T10:40:36.675Z,1008.37
2019-05-26T10:41:36.685Z,1008.32
2019-05-26T10:42:36.651Z,1008.25
2019-05-26T10:43:47.023Z,1008.40
2019-05-26T10:44:37.634Z,1008.37
2019-05-26T10:45:36.624Z,1008.45
2019-05-26T10:46:36.620Z,1008.22
2019-05-26T10:47:36.599Z,1008.18
2019-05-26T10:48:36.621Z,1008.30
2019-05-26T10:49:36.584Z,1008.25
2019-05-26T10:50:36.572Z,1008.22
2019-05-26T10:51:36.563Z,1008.30
2019-05-26T10:52:36.545Z,1008.10
2019-05-26T10:53:36.562Z,1008.28
2019-05-26T10:54:36.527Z,1008.02
2019-05-26T10:55:36.517Z,1008.06
2019-05-26T10:56:36.530Z,1008.19
2019-05-26T10:57:36.490Z,1008.16
2019-05-26T10:58:36.493Z,1008.12
2019-05-26T10:59:36.511Z,1008.05
2019-05-26T11:00:36.461Z,1008.01
2019-05-26T11:01:36.458Z,1008.11
2019-05-26T11:02:36.437Z,1008.30
2019-05-26T11:03:36.433Z,1008.18
2019-05-26T11:04:36.449Z,1008.26
2019-05-26T11:05:36.405Z,1008.27
2019-05-26T11:06:36.401Z,1008.23
2019-05-26T11:07:36.382Z,1008.01
2019-05-26T11:08:36.372Z,1007.93
2019-05-26T11:09:36.382Z,1007.82
2019-05-26T11:10:36.348Z,1007.77
2019-05-26T11:11:36.356Z,1007.92
2019-05-26T11:12:36.339Z,1007.90
2019-05-26T11:13:36.336Z,1007.93
2019-05-26T11:14:36.314Z,1007.85
2019-05-26T11:15:36.315Z,1007.90
2019-05-26T11:16:36.295Z,1007.83
2019-05-26T11:17:36.272Z,1007.86
2019-05-26T11:18:36.270Z,1007.83
2019-05-26T11:19:36.255Z,1007.77
2019-05-26T11:20:36.293Z,1007.81
2019-05-26T11:21:36.253Z,1007.77
2019-05-26T11:22:36.227Z,1007.72
2019-05-26T11:23:36.209Z,1007.73
2019-05-26T11:24:36.211Z,1007.67
2019-05-26T11:25:36.213Z,1007.67
2019-05-26T11:26:36.179Z,1007.61
2019-05-26T11:27:36.181Z,1007.71
2019-05-26T11:28:36.169Z,1007.68
2019-05-26T11:29:36.147Z,1007.73
2019-05-26T11:30:36.208Z,1007.76
2019-05-26T11:31:36.123Z,1007.80
2019-05-26T11:32:36.117Z,1007.70
2019-05-26T11:33:36.107Z,1007.84
2019-05-26T11:34:36.111Z,1007.80
2019-05-26T11:35:36.086Z,1007.59
2019-05-26T11:36:36.094Z,1007.61
2019-05-26T11:37:36.060Z,1007.58
2019-05-26T11:38:36.051Z,1007.63
2019-05-26T11:39:36.061Z,1007.60
2019-05-26T11:40:36.036Z,1007.58
2019-05-26T11:41:36.033Z,1007.56
2019-05-26T11:42:36.017Z,1007.55
2019-05-26T11:43:35.993Z,1007.58
2019-05-26T11:44:35.983Z,1007.56
2019-05-26T11:45:35.972Z,1007.57
2019-05-26T11:46:35.987Z,1007.54
2019-05-26T11:47:35.950Z,1007.65
2019-05-26T11:48:38.983Z,1007.59
2019-05-26T11:49:35.931Z,1007.58
2019-05-26T11:50:35.916Z,1007.59
2019-05-26T11:51:37.204Z,1007.61
2019-05-26T11:52:35.898Z,1007.49
2019-05-26T11:53:35.893Z,1007.50
2019-05-26T11:54:35.883Z,1007.63
2019-05-26T11:55:35.863Z,1007.51
2019-05-26T11:56:35.874Z,1007.46
2019-05-26T11:57:37.109Z,1007.43
2019-05-26T11:58:35.830Z,1007.44
2019-05-26T11:59:35.838Z,1007.40
2019-05-26T12:00:35.807Z,1007.41
2019-05-26T12:01:35.833Z,1007.32
2019-05-26T12:02:35.784Z,1007.37
2019-05-26T12:03:35.784Z,1007.32
2019-05-26T12:04:35.771Z,1007.35
2019-05-26T12:05:35.764Z,1007.38